Time;durP1;ratioP1;P1;durP2;ratioP2;P2;SDS_P1;SDS_P2;PMS_P1;PMS_P2;Temp;Humidity;BMP_temperature;BMP_pressure;BME280_temperature;BME280_humidity;BME280_pressure;Samples;Min_cycle;Max_cycle;Signal;HPM_P1;HPM_P2
2021/05/12 00:00:20;;;;;;;0.20;0.17;;;26.00;69.80;;;;;;4993723;28;20034;-79
2021/05/12 00:02:48;;;;;;;0.88;0.20;;;26.00;70.40;;;;;;4998036;28;20038;-80
2021/05/12 00:05:17;;;;;;;2.15;0.20;;;26.10;70.50;;;;;;4996809;28;20029;-79
2021/05/12 00:07:46;;;;;;;2.20;0.40;;;26.30;71.50;;;;;;4990562;28;20026;-73
2021/05/12 00:10:14;;;;;;;1.58;0.85;;;26.70;68.60;;;;;;4994979;28;20385;-73
2021/05/12 00:12:42;;;;;;;0.73;0.32;;;26.80;69.10;;;;;;4989039;28;20035;-75
2021/05/12 00:15:16;;;;;;;0.70;0.25;;;26.90;68.40;;;;;;4992127;28;20033;-74
2021/05/12 00:17:47;;;;;;;1.65;0.20;;;27.00;66.90;;;;;;5004464;28;20083;-73
2021/05/12 00:20:20;;;;;;;1.65;0.20;;;27.40;67.50;;;;;;4991554;28;20038;-74
2021/05/12 00:23:00;;;;;;;5.63;1.25;;;27.70;66.00;;;;;;4989189;28;20023;-74
2021/05/12 00:25:28;;;;;;;3.72;0.70;;;27.80;66.10;;;;;;4994240;28;20148;-74
2021/05/12 00:27:56;;;;;;;2.00;0.47;;;27.70;64.10;;;;;;4997429;28;20034;-72
2021/05/12 00:30:24;;;;;;;0.90;0.30;;;27.80;63.60;;;;;;4995717;28;20021;-73
2021/05/12 00:32:52;;;;;;;0.60;0.25;;;27.90;65.40;;;;;;4994708;28;20153;-73
2021/05/12 00:35:20;;;;;;;1.92;0.30;;;28.10;63.20;;;;;;4981413;28;20133;-73
2021/05/12 00:37:47;;;;;;;0.65;0.15;;;28.20;64.60;;;;;;4996403;28;20037;-74
2021/05/12 00:40:16;;;;;;;1.23;0.35;;;28.20;67.20;;;;;;4992159;28;20030;-73
2021/05/12 00:42:44;;;;;;;1.05;0.20;;;28.30;64.80;;;;;;4990572;28;20080;-74
2021/05/12 00:45:14;;;;;;;0.73;0.28;;;28.40;63.50;;;;;;4989481;28;20030;-73
2021/05/12 00:47:42;;;;;;;0.90;0.20;;;27.40;64.70;;;;;;4994522;28;20060;-73
2021/05/12 00:50:11;;;;;;;1.20;0.30;;;26.00;69.60;;;;;;4965387;28;20060;-72
2021/05/12 00:52:38;;;;;;;1.42;0.30;;;25.00;70.80;;;;;;4987603;28;20050;-72
2021/05/12 00:55:06;;;;;;;3.88;0.50;;;24.60;74.10;;;;;;4991314;28;20030;-73
2021/05/12 00:57:35;;;;;;;1.02;0.30;;;24.40;72.60;;;;;;4990857;28;20032;-73
2021/05/12 01:00:08;;;;;;;2.83;0.47;;;25.10;73.80;;;;;;4988392;28;20046;-73
2021/05/12 01:02:36;;;;;;;2.72;0.47;;;26.40;71.00;;;;;;4991515;28;20030;-72
2021/05/12 01:05:06;;;;;;;2.00;0.50;;;27.40;68.40;;;;;;4991149;28;20092;-73
2021/05/12 01:07:33;;;;;;;1.63;0.60;;;28.20;65.50;;;;;;4996130;28;20073;-72
2021/05/12 01:10:01;;;;;;;3.55;0.40;;;28.30;65.30;;;;;;4993936;28;20026;-72
2021/05/12 01:12:28;;;;;;;1.55;0.40;;;28.30;63.30;;;;;;4990677;28;20026;-72
2021/05/12 01:14:55;;;;;;;3.67;0.50;;;28.30;64.30;;;;;;4987222;28;20393;-72
2021/05/12 01:17:23;;;;;;;2.53;0.85;;;28.50;64.60;;;;;;4997554;28;20022;-78
2021/05/12 01:19:51;;;;;;;0.88;0.20;;;28.60;64.60;;;;;;4995600;28;20441;-79
2021/05/12 01:22:18;;;;;;;18.70;5.00;;;29.00;62.80;;;;;;4990279;28;20072;-78
2021/05/12 01:24:46;;;;;;;6.28;2.17;;;29.00;63.80;;;;;;4991128;28;20026;-79
2021/05/12 01:27:13;;;;;;;0.68;0.40;;;28.90;63.40;;;;;;4992750;28;20022;-77
2021/05/12 01:29:41;;;;;;;3.30;0.57;;;28.50;62.50;;;;;;4991897;28;20141;-78
2021/05/12 01:32:10;;;;;;;1.63;0.43;;;27.40;66.00;;;;;;4990152;28;20040;-77
2021/05/12 01:34:37;;;;;;;1.08;0.40;;;26.70;68.10;;;;;;4996623;28;20033;-77
2021/05/12 01:37:04;;;;;;;9.88;0.80;;;26.50;70.00;;;;;;4992886;28;20433;-77
2021/05/12 01:39:32;;;;;;;1.02;0.50;;;25.90;71.50;;;;;;4989607;28;20097;-77
2021/05/12 01:42:00;;;;;;;1.77;0.32;;;25.40;72.10;;;;;;4973956;28;20038;-77
2021/05/12 01:44:27;;;;;;;3.92;0.30;;;25.20;72.80;;;;;;4991615;28;20329;-75
2021/05/12 01:46:57;;;;;;;1.88;0.70;;;24.80;74.60;;;;;;4995338;28;20033;-77
2021/05/12 01:49:28;;;;;;;4.00;0.40;;;24.80;74.60;;;;;;4990049;28;20518;-77
2021/05/12 01:51:56;;;;;;;2.08;0.82;;;25.40;73.70;;;;;;4991735;28;20137;-77
2021/05/12 01:54:23;;;;;;;1.52;0.47;;;25.40;72.70;;;;;;4993407;28;20026;-77
2021/05/12 01:56:51;;;;;;;3.95;1.00;;;25.80;71.90;;;;;;4990997;28;20045;-78
2021/05/12 01:59:20;;;;;;;6.10;0.50;;;26.40;71.20;;;;;;4987108;28;20058;-77
2021/05/12 02:01:47;;;;;;;0.50;0.20;;;27.20;69.30;;;;;;4984953;28;20042;-77
2021/05/12 02:04:15;;;;;;;2.78;0.55;;;28.10;67.20;;;;;;4993174;28;20027;-77
2021/05/12 02:06:42;;;;;;;1.40;0.30;;;28.10;65.60;;;;;;4994468;28;20041;-77
2021/05/12 02:09:10;;;;;;;1.20;0.43;;;28.20;67.10;;;;;;4993282;28;20362;-77
2021/05/12 02:11:41;;;;;;;2.10;0.20;;;27.70;64.60;;;;;;4989479;28;20473;-77
2021/05/12 02:14:08;;;;;;;1.55;0.35;;;27.30;67.00;;;;;;4985234;28;20145;-77
2021/05/12 02:16:36;;;;;;;0.85;0.30;;;27.10;68.30;;;;;;4983879;28;20062;-77
2021/05/12 02:19:05;;;;;;;1.33;0.50;;;27.80;65.50;;;;;;4984739;28;20030;-78
2021/05/12 02:21:33;;;;;;;2.50;0.35;;;27.70;66.40;;;;;;4994674;28;20038;-76
2021/05/12 02:24:00;;;;;;;1.83;0.45;;;27.90;64.90;;;;;;4989683;28;20031;-76
2021/05/12 02:26:28;;;;;;;0.47;0.22;;;27.60;65.50;;;;;;4997840;28;20030;-77
2021/05/12 02:28:57;;;;;;;0.47;0.20;;;27.70;66.00;;;;;;4992175;28;20022;-79
2021/05/12 02:31:24;;;;;;;1.55;0.40;;;27.80;66.10;;;;;;4997381;28;20595;-79
2021/05/12 02:33:52;;;;;;;1.05;0.40;;;27.30;68.40;;;;;;4993781;28;20030;-77
2021/05/12 02:36:19;;;;;;;0.65;0.30;;;26.30;67.70;;;;;;4991805;28;20046;-77
2021/05/12 02:38:47;;;;;;;1.92;0.40;;;26.00;70.90;;;;;;4995288;28;20065;-77
2021/05/12 02:41:14;;;;;;;0.95;0.20;;;26.50;69.60;;;;;;4995772;28;20440;-77
2021/05/12 02:43:42;;;;;;;25.17;3.05;;;26.80;69.30;;;;;;4999812;28;20144;-77
2021/05/12 02:46:09;;;;;;;554.25;124.93;;;26.70;68.10;;;;;;5000594;28;20029;-77
2021/05/12 02:48:36;;;;;;;131.00;22.67;;;26.70;67.80;;;;;;4994040;28;20022;-76
2021/05/12 02:51:04;;;;;;;1.33;0.65;;;26.20;68.20;;;;;;4992173;28;20030;-76
2021/05/12 02:53:32;;;;;;;20.80;4.13;;;25.10;70.20;;;;;;4988330;28;20824;-76
2021/05/12 02:55:59;;;;;;;8.50;1.48;;;24.50;72.80;;;;;;4987440;28;20026;-75
2021/05/12 02:58:26;;;;;;;24.00;3.33;;;24.00;75.60;;;;;;4991538;28;20036;-75
2021/05/12 03:00:54;;;;;;;96.03;15.85;;;24.00;75.60;;;;;;4990970;28;20475;-76
2021/05/12 03:03:21;;;;;;;6.05;0.63;;;23.70;76.10;;;;;;4997815;28;20081;-75
2021/05/12 03:05:49;;;;;;;12.60;2.33;;;23.70;76.10;;;;;;4992576;28;20069;-74
2021/05/12 03:08:16;;;;;;;1.58;0.40;;;23.60;76.80;;;;;;5000635;28;20027;-76
2021/05/12 03:10:44;;;;;;;6.72;1.67;;;23.30;78.70;;;;;;4990678;28;20034;-77
2021/05/12 03:13:12;;;;;;;3.60;0.43;;;23.20;77.60;;;;;;4990318;28;20026;-76
2021/05/12 03:15:40;;;;;;;1.42;0.30;;;23.10;78.00;;;;;;4995049;28;20404;-76
2021/05/12 03:18:09;;;;;;;1.95;0.40;;;22.80;78.90;;;;;;4997931;28;20023;-76
2021/05/12 03:20:37;;;;;;;1.05;0.20;;;22.70;79.50;;;;;;4994277;28;20037;-75
2021/05/12 03:23:04;;;;;;;1.40;0.30;;;22.70;79.80;;;;;;4990424;28;20424;-76
2021/05/12 03:25:32;;;;;;;1.52;0.40;;;22.60;80.00;;;;;;4990022;28;20428;-77
2021/05/12 03:28:00;;;;;;;0.75;0.45;;;22.60;80.40;;;;;;4992762;28;20030;-76
2021/05/12 03:30:37;;;;;;;24.13;3.35;;;23.10;79.60;;;;;;4988769;28;20036;-78
2021/05/12 03:33:06;;;;;;;1.33;0.30;;;23.90;77.10;;;;;;4997902;28;20041;-77
2021/05/12 03:35:34;;;;;;;2.78;0.85;;;24.40;75.90;;;;;;4991967;28;20404;-77
2021/05/12 03:38:03;;;;;;;1.27;0.22;;;24.60;75.50;;;;;;4993175;28;20029;-77
2021/05/12 03:40:31;;;;;;;1.85;0.30;;;24.90;74.90;;;;;;4990473;28;20037;-79
2021/05/12 03:43:00;;;;;;;0.88;0.20;;;25.00;73.70;;;;;;4993986;28;20034;-77
2021/05/12 03:45:29;;;;;;;0.52;0.22;;;25.00;73.90;;;;;;4987526;28;20473;-75
2021/05/12 03:47:57;;;;;;;3.20;0.30;;;24.50;74.20;;;;;;4988985;28;20025;-77
2021/05/12 03:50:26;;;;;;;1.45;0.17;;;24.00;75.60;;;;;;4988171;28;21440;-77
2021/05/12 03:52:54;;;;;;;1.60;0.20;;;23.80;76.70;;;;;;4994283;28;20128;-78
2021/05/12 03:55:24;;;;;;;0.43;0.20;;;23.60;77.90;;;;;;4995966;28;20516;-78
2021/05/12 03:57:52;;;;;;;1.52;0.28;;;23.60;78.00;;;;;;4999366;28;20033;-77
2021/05/12 04:00:20;;;;;;;2.63;0.32;;;23.70;77.70;;;;;;4991847;28;20469;-78
2021/05/12 04:02:47;;;;;;;8.30;0.60;;;23.70;77.80;;;;;;4993689;28;20564;-78
2021/05/12 04:05:16;;;;;;;1.92;0.30;;;23.50;78.10;;;;;;4997746;28;20473;-76
2021/05/12 04:07:43;;;;;;;0.50;0.38;;;23.40;78.60;;;;;;4994447;28;20030;-78
2021/05/12 04:10:12;;;;;;;2.72;0.10;;;23.30;78.90;;;;;;4990646;28;20132;-79
2021/05/12 04:12:40;;;;;;;1.55;0.68;;;23.10;79.10;;;;;;4987835;28;20026;-75
2021/05/12 04:15:08;;;;;;;2.80;0.45;;;23.00;80.10;;;;;;4990037;28;20018;-77
2021/05/12 04:17:37;;;;;;;3.25;0.30;;;23.00;80.30;;;;;;4996064;28;20034;-77
2021/05/12 04:20:07;;;;;;;1.45;0.20;;;22.90;80.90;;;;;;4988851;28;20046;-75
2021/05/12 04:22:35;;;;;;;4.63;1.42;;;22.60;81.70;;;;;;4995047;28;20461;-75
2021/05/12 04:25:03;;;;;;;2.15;0.30;;;22.60;82.20;;;;;;4989462;28;20037;-75
2021/05/12 04:27:31;;;;;;;1.02;0.45;;;22.60;81.20;;;;;;4997083;28;20441;-75
2021/05/12 04:29:58;;;;;;;0.77;0.20;;;22.70;81.30;;;;;;4991146;28;20054;-76
2021/05/12 04:32:26;;;;;;;4.82;0.40;;;22.70;80.70;;;;;;4994107;28;20080;-74
2021/05/12 04:34:53;;;;;;;0.85;0.38;;;22.40;81.20;;;;;;4995741;28;20037;-74
2021/05/12 04:37:21;;;;;;;4.47;0.40;;;22.30;82.10;;;;;;4979635;28;20034;-76
2021/05/12 04:39:48;;;;;;;2.35;0.30;;;22.30;82.40;;;;;;4987783;28;20072;-75
2021/05/12 04:42:16;;;;;;;2.88;0.65;;;22.30;82.90;;;;;;4993075;28;20109;-75
2021/05/12 04:44:44;;;;;;;2.05;0.30;;;22.20;83.70;;;;;;4990488;28;20026;-76
2021/05/12 04:47:13;;;;;;;2.35;0.30;;;22.10;84.70;;;;;;4980242;28;20088;-75
2021/05/12 04:49:40;;;;;;;1.60;0.40;;;22.20;85.50;;;;;;4995225;28;20514;-77
2021/05/12 04:52:08;;;;;;;0.82;0.40;;;22.30;84.40;;;;;;4992611;28;20037;-77
2021/05/12 04:54:35;;;;;;;2.97;0.30;;;22.30;84.40;;;;;;4986992;28;20102;-78
2021/05/12 04:57:02;;;;;;;1.80;0.63;;;22.30;84.40;;;;;;4992210;28;20029;-77
2021/05/12 04:59:30;;;;;;;0.93;0.55;;;22.30;84.30;;;;;;4992993;28;20353;-78
2021/05/12 05:01:59;;;;;;;1.38;0.30;;;22.30;83.70;;;;;;4994476;28;20062;-77
2021/05/12 05:04:27;;;;;;;2.95;0.43;;;22.20;83.60;;;;;;4995949;28;20030;-75
2021/05/12 05:06:54;;;;;;;0.88;0.25;;;22.10;83.80;;;;;;4996325;28;20030;-75
2021/05/12 05:09:22;;;;;;;0.77;0.22;;;22.00;84.60;;;;;;4991558;28;20038;-78
2021/05/12 05:11:50;;;;;;;2.33;0.50;;;22.00;85.40;;;;;;4994008;28;20804;-78
2021/05/12 05:14:17;;;;;;;2.30;0.32;;;21.90;86.10;;;;;;4994190;28;20105;-78
2021/05/12 05:16:44;;;;;;;2.10;0.30;;;21.90;85.80;;;;;;4995752;28;20033;-76
2021/05/12 05:19:12;;;;;;;1.65;0.40;;;21.90;86.00;;;;;;4994834;28;20552;-76
2021/05/12 05:21:41;;;;;;;1.73;0.30;;;21.70;86.40;;;;;;4995067;28;20053;-78
2021/05/12 05:24:10;;;;;;;2.03;0.22;;;21.60;87.20;;;;;;4991354;28;20023;-77
2021/05/12 05:26:38;;;;;;;1.60;0.30;;;21.60;88.00;;;;;;4991425;28;20029;-78
2021/05/12 05:29:05;;;;;;;0.88;0.30;;;21.50;88.10;;;;;;4992578;28;20026;-76
2021/05/12 05:31:33;;;;;;;0.75;0.32;;;21.40;88.20;;;;;;4994682;28;20022;-77
2021/05/12 05:34:00;;;;;;;0.88;0.20;;;21.30;87.80;;;;;;4993095;28;20041;-75
2021/05/12 05:36:28;;;;;;;1.65;0.20;;;21.30;88.10;;;;;;4995040;28;21202;-76
2021/05/12 05:38:55;;;;;;;1.73;0.50;;;21.30;88.50;;;;;;4995360;28;20482;-77
2021/05/12 05:41:22;;;;;;;2.35;0.30;;;21.30;88.60;;;;;;4995101;28;20038;-75
2021/05/12 05:43:50;;;;;;;0.73;0.30;;;21.30;89.40;;;;;;4976048;28;20065;-74
2021/05/12 05:46:17;;;;;;;4.95;0.43;;;21.40;89.70;;;;;;4990410;28;20048;-76
2021/05/12 05:48:45;;;;;;;3.33;0.70;;;21.50;88.30;;;;;;4991643;28;20026;-73
2021/05/12 05:51:12;;;;;;;1.42;0.22;;;21.60;88.70;;;;;;4992972;28;20033;-75
2021/05/12 05:53:39;;;;;;;2.15;0.65;;;21.60;88.80;;;;;;4990972;28;20101;-75
2021/05/12 05:56:07;;;;;;;0.40;0.20;;;21.60;88.80;;;;;;4989318;28;20393;-75
2021/05/12 05:58:34;;;;;;;1.67;0.50;;;21.70;89.00;;;;;;4991172;28;20042;-75
2021/05/12 06:01:01;;;;;;;2.05;0.25;;;21.60;88.50;;;;;;4989547;28;22218;-75
2021/05/12 06:03:29;;;;;;;2.13;0.63;;;21.60;89.00;;;;;;4997019;28;20038;-76
2021/05/12 06:05:56;;;;;;;2.78;0.73;;;21.50;89.60;;;;;;4987983;28;20027;-76
2021/05/12 06:08:24;;;;;;;3.22;0.40;;;21.40;90.20;;;;;;4986244;28;20081;-76
2021/05/12 06:10:52;;;;;;;8.82;1.08;;;21.30;90.50;;;;;;4993795;28;20033;-77
2021/05/12 06:13:19;;;;;;;1.63;0.82;;;21.20;90.70;;;;;;4994807;28;20053;-75
2021/05/12 06:15:46;;;;;;;5.78;0.82;;;21.20;90.90;;;;;;4989302;28;20042;-76
2021/05/12 06:18:14;;;;;;;3.25;0.88;;;21.20;91.10;;;;;;4994301;28;20029;-77
2021/05/12 06:20:41;;;;;;;2.35;0.52;;;21.20;91.10;;;;;;4988154;28;20958;-73
2021/05/12 06:23:09;;;;;;;5.28;0.90;;;21.20;91.10;;;;;;4990546;28;20543;-76
2021/05/12 06:25:36;;;;;;;4.95;1.17;;;21.30;91.10;;;;;;4990609;28;20389;-74
2021/05/12 06:28:03;;;;;;;2.42;0.50;;;21.20;91.10;;;;;;4986491;28;20042;-76
2021/05/12 06:30:31;;;;;;;4.32;1.15;;;21.10;91.10;;;;;;4990907;28;20024;-73
2021/05/12 06:32:58;;;;;;;1.75;0.30;;;20.90;91.40;;;;;;4993115;28;20509;-76
2021/05/12 06:35:26;;;;;;;3.60;0.80;;;20.70;91.80;;;;;;4992614;28;20027;-78
2021/05/12 06:37:53;;;;;;;2.53;0.45;;;20.50;92.30;;;;;;4990610;28;20036;-80
2021/05/12 06:40:20;;;;;;;1.65;0.38;;;20.40;92.60;;;;;;4988251;28;20414;-77
2021/05/12 06:42:48;;;;;;;0.63;0.30;;;20.30;92.90;;;;;;4992644;28;20053;-78
2021/05/12 06:45:15;;;;;;;0.77;0.40;;;20.20;93.00;;;;;;4988889;28;20030;-75
2021/05/12 06:47:43;;;;;;;4.63;0.60;;;20.20;93.30;;;;;;4997291;28;20041;-77
2021/05/12 06:50:11;;;;;;;1.67;0.30;;;20.10;93.60;;;;;;4992274;28;20524;-78
2021/05/12 06:52:38;;;;;;;10.88;1.30;;;20.00;93.80;;;;;;4994653;28;20058;-77
2021/05/12 06:55:06;;;;;;;10.63;1.25;;;19.90;94.20;;;;;;4993825;28;20038;-76
2021/05/12 06:57:34;;;;;;;4.40;0.85;;;19.80;94.20;;;;;;4992702;28;20145;-76
2021/05/12 07:00:01;;;;;;;21.70;2.90;;;19.70;94.40;;;;;;4988466;28;20096;-75
2021/05/12 07:02:28;;;;;;;29.20;3.50;;;19.60;94.80;;;;;;4986865;28;20026;-76
2021/05/12 07:04:56;;;;;;;23.23;2.85;;;19.50;95.00;;;;;;4993697;28;20045;-76
2021/05/12 07:07:23;;;;;;;6.97;0.60;;;19.40;95.10;;;;;;4973078;28;20102;-76
2021/05/12 07:09:50;;;;;;;4.07;1.05;;;19.40;95.10;;;;;;4979255;28;20105;-74
2021/05/12 07:12:18;;;;;;;5.20;1.17;;;19.40;95.30;;;;;;4994899;28;20491;-76
2021/05/12 07:14:45;;;;;;;4.40;0.90;;;19.40;95.30;;;;;;4988797;28;20026;-75
2021/05/12 07:17:13;;;;;;;5.45;1.35;;;19.30;95.30;;;;;;4996308;28;20041;-77
2021/05/12 07:19:40;;;;;;;2.90;0.75;;;19.30;95.40;;;;;;4990071;28;20030;-76
2021/05/12 07:22:08;;;;;;;4.07;0.70;;;19.30;95.20;;;;;;4994123;28;20045;-81
2021/05/12 07:24:35;;;;;;;12.38;1.10;;;19.20;95.40;;;;;;4993361;28;20026;-77
2021/05/12 07:27:02;;;;;;;19.13;2.45;;;19.20;95.60;;;;;;4991870;28;20034;-78
2021/05/12 07:29:30;;;;;;;5.75;0.77;;;19.20;95.60;;;;;;4994020;28;20034;-76
2021/05/12 07:31:57;;;;;;;3.35;0.80;;;19.20;95.70;;;;;;5000290;28;20018;-77
2021/05/12 07:34:25;;;;;;;3.88;1.05;;;19.10;95.80;;;;;;4993235;28;20033;-77
2021/05/12 07:36:52;;;;;;;8.52;3.38;;;19.00;96.10;;;;;;4996856;28;20453;-77
2021/05/12 07:39:19;;;;;;;6.05;2.75;;;18.90;96.20;;;;;;4996723;28;20065;-76
2021/05/12 07:41:50;;;;;;;7.00;2.38;;;18.90;96.20;;;;;;4995294;28;20060;-77
2021/05/12 07:44:18;;;;;;;2.88;1.00;;;18.80;96.20;;;;;;4991717;28;20129;-76
2021/05/12 07:46:45;;;;;;;6.43;1.85;;;18.70;96.50;;;;;;4995753;28;20026;-78
2021/05/12 07:49:13;;;;;;;5.32;1.83;;;18.70;96.80;;;;;;4996413;28;20562;-76
2021/05/12 07:51:40;;;;;;;4.30;1.48;;;18.60;96.80;;;;;;4996888;28;20540;-76
2021/05/12 07:54:07;;;;;;;5.97;1.73;;;18.50;97.20;;;;;;4990957;28;20062;-77
2021/05/12 07:56:35;;;;;;;3.90;1.52;;;18.50;97.00;;;;;;4998999;28;20041;-78
2021/05/12 07:59:02;;;;;;;6.25;1.85;;;18.50;97.10;;;;;;4998738;28;20022;-75
2021/05/12 08:01:42;;;;;;;4.43;0.65;;;18.40;96.90;;;;;;4998548;28;20034;-79
2021/05/12 08:04:10;;;;;;;9.15;2.63;;;18.30;97.00;;;;;;4998319;28;20035;-78
2021/05/12 08:06:39;;;;;;;3.90;1.05;;;18.30;97.10;;;;;;5000788;28;20122;-77
2021/05/12 08:09:08;;;;;;;4.85;1.58;;;18.20;97.30;;;;;;4992719;28;20050;-78
2021/05/12 08:11:36;;;;;;;1.80;0.90;;;18.20;97.10;;;;;;4994225;28;20125;-76
2021/05/12 08:14:05;;;;;;;4.32;0.80;;;18.20;97.10;;;;;;4992531;28;20061;-78
2021/05/12 08:16:32;;;;;;;4.43;0.80;;;18.20;97.20;;;;;;4987605;28;20033;-77
2021/05/12 08:19:00;;;;;;;2.65;0.65;;;18.10;97.40;;;;;;4990900;28;20025;-76
2021/05/12 08:21:27;;;;;;;2.72;0.80;;;18.00;97.60;;;;;;4993622;28;20046;-74
2021/05/12 08:23:55;;;;;;;3.15;0.95;;;18.00;97.80;;;;;;4988448;28;20656;-82
2021/05/12 08:26:22;;;;;;;1.80;0.82;;;17.90;97.90;;;;;;4995813;28;20500;-77
2021/05/12 08:28:50;;;;;;;1.92;1.00;;;17.80;98.00;;;;;;4992621;28;20097;-77
2021/05/12 08:31:18;;;;;;;5.03;2.13;;;17.80;98.10;;;;;;4998497;28;20135;-78
2021/05/12 08:33:46;;;;;;;11.35;3.22;;;17.80;98.20;;;;;;4993952;28;20109;-77
2021/05/12 08:36:14;;;;;;;3.80;2.05;;;17.90;98.10;;;;;;4999436;28;20026;-77
2021/05/12 08:38:46;;;;;;;4.45;2.00;;;17.80;98.40;;;;;;4994825;28;20053;-79
2021/05/12 08:41:19;;;;;;;7.10;2.53;;;17.90;98.20;;;;;;4995698;28;20058;-74
2021/05/12 08:43:47;;;;;;;5.68;1.30;;;17.80;98.40;;;;;;4996652;28;20030;-75
2021/05/12 08:46:18;;;;;;;3.78;1.08;;;17.70;98.50;;;;;;4995393;28;20379;-75
2021/05/12 08:48:47;;;;;;;4.82;1.50;;;17.80;98.70;;;;;;4988280;28;20045;-76
2021/05/12 08:51:14;;;;;;;5.93;1.40;;;17.80;98.60;;;;;;4998697;28;20034;-77
2021/05/12 08:53:42;;;;;;;1.10;0.60;;;17.80;98.60;;;;;;4997081;28;20112;-75
2021/05/12 08:56:09;;;;;;;2.97;0.90;;;17.80;98.60;;;;;;4993583;28;20079;-77
2021/05/12 08:58:37;;;;;;;5.60;1.15;;;17.80;98.70;;;;;;4994413;28;20089;-77
2021/05/12 09:01:04;;;;;;;4.32;1.40;;;17.90;98.90;;;;;;4996474;28;20045;-75
2021/05/12 09:03:32;;;;;;;3.80;0.93;;;17.90;98.80;;;;;;4999105;28;20034;-76
2021/05/12 09:06:00;;;;;;;3.35;0.57;;;17.90;98.90;;;;;;4990809;28;20133;-76
2021/05/12 09:08:27;;;;;;;2.67;1.00;;;17.90;98.90;;;;;;4997933;28;20041;-77
2021/05/12 09:10:55;;;;;;;1.52;0.70;;;17.90;98.80;;;;;;4994321;28;20492;-78
2021/05/12 09:13:41;;;;;;;1.10;1.00;;;17.90;98.60;;;;;;4996687;28;20026;-74
2021/05/12 09:16:35;;;;;;;4.30;1.23;;;18.00;98.70;;;;;;4996078;28;20140;-75
2021/05/12 09:19:09;;;;;;;6.03;1.27;;;18.00;98.60;;;;;;4992096;28;20044;-75
2021/05/12 09:21:51;;;;;;;2.65;0.70;;;18.10;98.60;;;;;;4996603;28;20053;-75
2021/05/12 09:24:27;;;;;;;3.67;1.38;;;18.10;98.50;;;;;;4995993;28;20075;-77
2021/05/12 09:27:01;;;;;;;4.90;1.10;;;18.10;98.40;;;;;;5000357;28;20483;-78
2021/05/12 09:29:41;;;;;;;1.63;0.50;;;18.00;98.30;;;;;;4994888;28;20026;-76
2021/05/12 09:32:14;;;;;;;5.95;1.33;;;18.10;98.20;;;;;;4995563;28;20030;-78
2021/05/12 09:35:02;;;;;;;4.22;0.98;;;18.00;98.20;;;;;;4991742;28;20048;-76
2021/05/12 09:37:34;;;;;;;2.17;0.50;;;18.00;98.10;;;;;;4994741;28;20014;-77
2021/05/12 09:40:06;;;;;;;2.47;0.52;;;18.10;98.10;;;;;;4994137;28;20131;-76
2021/05/12 09:42:35;;;;;;;3.78;0.52;;;18.10;98.10;;;;;;4990526;28;20030;-75
2021/05/12 09:45:19;;;;;;;3.88;0.30;;;18.00;98.00;;;;;;4991840;28;20030;-75
2021/05/12 09:47:51;;;;;;;1.15;0.50;;;18.00;98.10;;;;;;4999747;28;20489;-76
2021/05/12 09:50:42;;;;;;;4.47;0.55;;;18.00;98.00;;;;;;5000451;28;20050;-76
2021/05/12 09:53:14;;;;;;;1.98;0.50;;;17.90;98.10;;;;;;4998275;28;20044;-76
2021/05/12 09:55:47;;;;;;;1.58;0.73;;;17.90;98.20;;;;;;4997142;28;20445;-75
2021/05/12 09:58:21;;;;;;;5.20;0.77;;;17.80;98.20;;;;;;4990618;28;20121;-75
2021/05/12 10:00:52;;;;;;;1.77;0.65;;;17.80;98.40;;;;;;4985269;28;20038;-77
2021/05/12 10:03:33;;;;;;;1.17;0.50;;;17.80;98.40;;;;;;4989215;28;20092;-76
2021/05/12 10:06:04;;;;;;;1.90;0.43;;;17.80;98.30;;;;;;4990719;28;20039;-77
2021/05/12 10:08:36;;;;;;;3.65;0.70;;;17.80;98.40;;;;;;4987390;28;20092;-77
2021/05/12 10:11:08;;;;;;;3.15;0.98;;;17.80;98.50;;;;;;4990080;28;20536;-76
2021/05/12 10:13:38;;;;;;;2.05;0.57;;;17.80;98.60;;;;;;4992098;28;20038;-77
2021/05/12 10:16:10;;;;;;;5.43;1.85;;;17.80;98.50;;;;;;4989343;28;20025;-77
2021/05/12 10:18:38;;;;;;;5.43;2.63;;;17.80;98.40;;;;;;4998612;28;20033;-80
2021/05/12 10:21:09;;;;;;;13.10;2.50;;;17.80;98.50;;;;;;4998613;28;20046;-79
2021/05/12 10:23:37;;;;;;;6.03;1.40;;;17.70;99.10;;;;;;4997546;28;20504;-79
2021/05/12 10:26:07;;;;;;;12.43;2.63;;;17.60;99.50;;;;;;4993700;28;20043;-82
2021/05/12 10:28:42;;;;;;;2.33;1.52;;;17.50;99.90;;;;;;4987709;28;20031;-79
2021/05/12 10:31:12;;;;;;;5.28;2.38;;;17.30;99.90;;;;;;4998270;28;20026;-79
2021/05/12 10:33:51;;;;;;;10.00;3.90;;;17.20;99.90;;;;;;4997067;28;20420;-81
2021/05/12 10:36:20;;;;;;;10.43;3.75;;;17.20;99.90;;;;;;5000963;28;20029;-79
2021/05/12 10:38:48;;;;;;;13.15;3.47;;;17.10;99.90;;;;;;4991265;28;20041;-78
2021/05/12 10:41:46;;;;;;;13.40;5.15;;;17.10;99.90;;;;;;4993923;28;20499;-78
2021/05/12 10:44:27;;;;;;;11.02;3.17;;;17.00;99.90;;;;;;4986097;28;20039;-79
2021/05/12 10:47:04;;;;;;;12.88;4.63;;;16.90;99.90;;;;;;5005246;28;20045;-78
2021/05/12 10:49:35;;;;;;;17.25;8.18;;;16.80;99.90;;;;;;4999280;28;20053;-78
2021/05/12 10:52:10;;;;;;;7.05;3.15;;;16.80;99.90;;;;;;4994274;28;20026;-77
2021/05/12 10:54:52;;;;;;;8.18;2.15;;;16.80;99.90;;;;;;5002544;28;20033;-78
2021/05/12 10:57:49;;;;;;;6.03;1.50;;;16.80;99.90;;;;;;4996627;28;20053;-76
2021/05/12 11:00:20;;;;;;;7.13;2.25;;;16.80;99.90;;;;;;4993492;28;20053;-78
2021/05/12 11:03:04;;;;;;;6.65;1.45;;;16.80;99.90;;;;;;4996999;28;20076;-79
2021/05/12 11:05:52;;;;;;;7.63;2.35;;;16.80;99.90;;;;;;4999612;28;20034;-79
2021/05/12 11:08:21;;;;;;;11.10;2.17;;;16.80;99.90;;;;;;4993551;28;20041;-77
2021/05/12 11:10:59;;;;;;;10.73;1.48;;;16.80;99.90;;;;;;4994672;28;20081;-77
2021/05/12 11:13:30;;;;;;;1.95;1.67;;;16.90;99.90;;;;;;5001107;28;20500;-79
2021/05/12 11:16:07;;;;;;;5.95;1.95;;;16.90;99.90;;;;;;4993009;28;20385;-77
2021/05/12 11:18:34;;;;;;;6.07;1.88;;;16.90;99.90;;;;;;4994744;28;20033;-78
2021/05/12 11:21:22;;;;;;;7.05;1.73;;;16.90;99.90;;;;;;4999312;28;20042;-78
2021/05/12 11:24:14;;;;;;;8.60;1.55;;;17.00;99.90;;;;;;4993219;28;20021;-78
2021/05/12 11:26:53;;;;;;;2.78;1.30;;;17.00;99.90;;;;;;4987725;28;20026;-78
2021/05/12 11:32:11;;;;;;;6.70;1.48;;;17.00;99.90;;;;;;4994729;28;20035;-78
2021/05/12 11:34:40;;;;;;;6.13;2.50;;;17.00;99.90;;;;;;5011860;28;20033;-78
2021/05/12 11:37:16;;;;;;;11.27;2.50;;;17.00;99.90;;;;;;4983231;28;20501;-76
2021/05/12 11:39:48;;;;;;;7.55;2.67;;;17.00;99.90;;;;;;5003081;28;20069;-78
2021/05/12 11:42:28;;;;;;;11.43;2.15;;;17.00;99.90;;;;;;4994857;28;20042;-77
2021/05/12 11:45:21;;;;;;;9.98;3.13;;;16.90;99.90;;;;;;4991973;28;20033;-77
2021/05/12 11:48:01;;;;;;;6.13;2.35;;;16.90;99.90;;;;;;5000617;28;20025;-78
2021/05/12 11:50:39;;;;;;;7.45;2.85;;;16.90;99.90;;;;;;4986993;28;20054;-78
2021/05/12 11:53:06;;;;;;;11.02;3.10;;;16.80;99.90;;;;;;4999096;28;20024;-78
2021/05/12 11:55:35;;;;;;;4.38;1.83;;;16.80;99.90;;;;;;4997466;28;20417;-77
2021/05/12 11:58:02;;;;;;;4.32;1.50;;;16.80;99.90;;;;;;5008988;28;20022;-77
2021/05/12 12:00:34;;;;;;;11.25;2.20;;;16.80;99.90;;;;;;4997247;28;20112;-77
2021/05/12 12:03:09;;;;;;;5.78;1.95;;;16.70;99.90;;;;;;4993146;28;20046;-77
2021/05/12 12:05:49;;;;;;;3.67;1.05;;;16.70;99.90;;;;;;4991274;28;20105;-76
2021/05/12 12:08:19;;;;;;;7.43;1.73;;;16.70;99.90;;;;;;4999911;28;20393;-77
2021/05/12 12:10:47;;;;;;;3.10;1.30;;;16.60;99.90;;;;;;4990244;28;20027;-76
2021/05/12 12:13:17;;;;;;;5.20;1.40;;;16.60;99.90;;;;;;4995698;28;20022;-77
2021/05/12 12:15:50;;;;;;;4.88;1.92;;;16.50;99.90;;;;;;4994271;28;20022;-76
2021/05/12 12:18:34;;;;;;;10.65;2.03;;;16.50;99.90;;;;;;4992910;28;20030;-76
2021/05/12 12:21:03;;;;;;;15.45;1.85;;;16.40;99.90;;;;;;5000775;28;20073;-77
2021/05/12 12:23:33;;;;;;;5.18;1.65;;;16.30;99.90;;;;;;5006822;28;20395;-77
2021/05/12 12:26:16;;;;;;;3.50;1.95;;;16.20;99.90;;;;;;4994300;28;20038;-79
2021/05/12 12:28:57;;;;;;;2.72;1.50;;;16.10;99.90;;;;;;4996551;28;20397;-76
2021/05/12 12:31:27;;;;;;;7.18;2.05;;;16.10;99.90;;;;;;5000011;28;20022;-77
2021/05/12 12:34:22;;;;;;;4.50;1.70;;;16.10;99.90;;;;;;4996877;28;20065;-76
2021/05/12 12:36:56;;;;;;;7.18;2.30;;;16.10;99.90;;;;;;4995925;28;20026;-76
2021/05/12 12:39:45;;;;;;;5.43;1.83;;;16.00;99.90;;;;;;4996996;28;20506;-77
2021/05/12 12:42:16;;;;;;;3.58;1.50;;;16.00;99.90;;;;;;4991651;28;20030;-76
2021/05/12 12:44:45;;;;;;;3.78;1.60;;;16.10;99.90;;;;;;4993386;28;20030;-76
2021/05/12 12:47:18;;;;;;;4.93;1.20;;;16.10;99.90;;;;;;4996844;28;20492;-75
2021/05/12 12:50:00;;;;;;;4.38;1.95;;;16.10;99.90;;;;;;5001757;28;20044;-79
2021/05/12 12:52:41;;;;;;;5.25;2.50;;;16.20;99.90;;;;;;4986008;28;20026;-79
2021/05/12 12:55:14;;;;;;;6.95;2.10;;;16.10;99.90;;;;;;4993641;28;20018;-79
2021/05/12 12:57:47;;;;;;;5.13;2.15;;;16.10;99.90;;;;;;5001950;28;20473;-79
2021/05/12 13:00:25;;;;;;;5.35;1.60;;;16.10;99.90;;;;;;4999630;28;20026;-79
2021/05/12 13:03:23;;;;;;;4.03;1.77;;;16.10;99.90;;;;;;5002669;28;20030;-79